ENBOENAL

Guest
Details From ENBO - BODO
To ENAL - Alesund lufthavn - Vigra
Flight Number -
Tags generated
Created
Modified
Stats Distance 357 nm / 660 km
Max Altitude 32,300 ft / 9,845 m
Waypoints 4
Social Downloads 4
Likes 0
Share VATSIM

Download

Looking for another format? Having issues loading an existing format? Contact us
Advertisement - Login to hide

Notes

Basic altitude profile: - Ascent Rate: 2500ft/min - Ascent Speed: 250kts - Cruise Altitude: 35000ft - Cruise Speed: 420kts - Descent Rate: 1500ft/min - Descent Speed: 250kts

Route

ENBO STO UZ107 KVB ENAL

ID Type Via Altitude Latitude Longitude Leg Dist Tot Dist Heading (true) Name
O ENBO APT - 0 ft / 0 m 67.26849˚ 14.35677˚ - 0 nm - BODO
STO VOR - 32,300 ft / 9,845 m 65.96042˚ 12.46945˚ 90 nm 90 nm 211° / 209° STOKKA VOR-DME
KVB VOR UZ107 (AWY-HI) 24,500 ft / 7,468 m 63.11813˚ 7.81054˚ 208 nm 299 nm 217° / 213° KVERNBERGET VOR-DME
O ENAL APT - 0 ft / 0 m 62.56037˚ 6.11016˚ 57 nm 356 nm 235° / 234° Alesund lufthavn - Vigra

Altitude Profile

Advertisement - Login to hide

Weather


0- 5 10 15 20 25 30 35+ Temperature / ° C

Clouds and Precipitation
Forecast for 2017-12-17 06:00 UTC. Updated 2 hours ago

Ground ~20,000 ft ~40,000 ft Winds

ENBO

Details ICAO ENBO (BOO)
Name BODO
Region Norway
Timezone Europe/Oslo (UTC+1.0)
Stats Elevation 42 ft / 13 m (AMSL)
Location 67.268487° 14.356773°
Runways 1
Magnetic Variation 5.705° E

METAR

ENBO 170620Z 22013KT 9999 FEW012 SCT040 BKN200 03/M01 Q1001

Decode

TAF

TAF TAF ENBO 170500Z 1706/1806 21012KT 9999 FEW015CB BKN030 TEMPO 1706/1718 27015G25KT 2000 SHRASNGS VV008 TEMPO 1706/1724 VRB08KT BECMG 1722/1724 10010KT

Decode

Departure Runways

ID Width Length Bearing (true) Bearing (mag) Surface Threshold Offset Overrun Length
07 148 ft / 45 m 11,096 ft / 3,382 m 77.83° 72.12° Concrete 1,969 ft / 600 m 984 ft / 300 m
25 148 ft / 45 m 11,096 ft / 3,382 m 257.90° 252.19° Concrete 0 ft / 0 m 486 ft / 148 m

ENAL

Details ICAO ENAL (AES)
Name Alesund lufthavn - Vigra
Region Norway
Timezone Europe/Oslo (UTC+1.0)
Stats Elevation 69 ft / 21 m (AMSL)
Location 62.560371° 6.110165°
Runways 1
Magnetic Variation 1.163° E

METAR

ENAL 170620Z 19011KT 9999 SCT055 BKN070 03/M00 Q1009

Decode

TAF

Not found

Destination Runways

ID Width Length Bearing (true) Bearing (mag) Surface Threshold Offset Overrun Length
07 148 ft / 45 m 7,563 ft / 2,305 m 64.61° 63.45° Asphalt 492 ft / 150 m 0 ft / 0 m
25 148 ft / 45 m 7,563 ft / 2,305 m 244.65° 243.49° Asphalt 758 ft / 231 m 0 ft / 0 m

Approach Navaids

Runway Type Ident Frequency Range Bearing (true) Bearing (mag) Slope Elevation
25 Localiser VGR 111.95 MHz 18 nm / 33 km 244.61° 243.45° - 72 ft / 22 m (AMSL)
25 Glidescope VGR 111.95 MHz 10 nm / 19 km 244.61° 243.45° 3.00° 18 ft / 5 m (AMSL)

Popular Alternatives